createdAt,value
2023-03-28T00:02:01.774Z,98572.75
2023-03-28T00:07:05.718Z,98584.66
2023-03-28T00:12:08.408Z,98585.50
2023-03-28T00:17:10.981Z,98583.78
2023-03-28T00:22:13.814Z,98590.56
2023-03-28T00:27:17.920Z,98595.66
2023-03-28T00:32:20.570Z,98595.69
2023-03-28T00:37:23.740Z,98599.03
2023-03-28T00:42:26.522Z,98598.09
2023-03-28T00:47:57.889Z,98608.34
2023-03-28T00:53:09.265Z,98624.44
2023-03-28T00:58:17.335Z,98627.84
2023-03-28T01:03:22.710Z,98633.75
2023-03-28T01:08:31.348Z,98629.47
2023-03-28T01:13:39.075Z,98638.75
2023-03-28T01:18:42.773Z,98641.31
2023-03-28T01:23:49.681Z,98630.31
2023-03-28T01:29:01.310Z,98637.91
2023-03-28T01:34:42.363Z,98625.06
2023-03-28T01:40:00.453Z,98633.56
2023-03-28T01:45:14.928Z,98639.50
2023-03-28T01:50:20.751Z,98645.47
2023-03-28T01:55:27.254Z,98635.22
2023-03-28T02:00:40.199Z,98640.28
2023-03-28T02:05:45.423Z,98650.44
2023-03-28T02:10:53.910Z,98627.25
2023-03-28T02:16:24.675Z,98653.66
2023-03-28T02:21:58.731Z,98654.44
2023-03-28T02:27:22.886Z,98668.91
2023-03-28T02:32:50.534Z,98651.72
2023-03-28T02:38:14.777Z,98681.53
2023-03-28T02:43:49.041Z,98684.81
2023-03-28T02:49:24.241Z,98681.53
2023-03-28T02:54:30.033Z,98688.44
2023-03-28T03:00:12.619Z,98678.94
2023-03-28T03:05:16.506Z,98692.59
2023-03-28T03:10:19.315Z,98685.72
2023-03-28T03:15:23.210Z,98700.22
2023-03-28T03:20:26.725Z,98707.09
2023-03-28T03:25:31.423Z,98686.63
2023-03-28T03:30:54.305Z,98700.41
2023-03-28T03:36:12.878Z,98726.22
2023-03-28T03:41:17.139Z,98718.59
2023-03-28T03:46:20.475Z,98718.69
2023-03-28T03:51:25.209Z,98728.28
2023-03-28T03:56:30.872Z,98732.75
2023-03-28T04:01:36.283Z,98740.47
2023-03-28T04:06:52.333Z,98738.81
2023-03-28T04:11:55.684Z,98731.22
2023-03-28T04:16:58.655Z,98716.75
2023-03-28T04:22:04.442Z,98736.50
2023-03-28T04:27:09.504Z,98744.28
2023-03-28T04:32:13.030Z,98737.53
2023-03-28T04:37:40.969Z,98732.44
2023-03-28T04:42:44.593Z,98734.22
2023-03-28T04:48:01.523Z,98735.03
2023-03-28T04:53:04.189Z,98735.81
2023-03-28T04:58:07.300Z,98706.59
2023-03-28T05:08:32.907Z,98741.41
2023-03-28T05:13:36.958Z,98747.19
2023-03-28T05:19:06.585Z,98744.38
2023-03-28T05:24:38.594Z,98762.91
2023-03-28T05:29:48.644Z,98753.31
2023-03-28T05:34:53.239Z,98756.47
2023-03-28T05:39:57.410Z,98746.81
2023-03-28T05:45:00.460Z,98764.50
2023-03-28T05:50:07.430Z,98765.94
2023-03-28T05:55:10.403Z,98771.59
2023-03-28T06:00:15.612Z,98775.63
2023-03-28T06:05:21.344Z,98776.81
2023-03-28T06:10:25.723Z,98794.16
2023-03-28T06:15:46.770Z,98786.66
2023-03-28T06:20:49.798Z,98770.50
2023-03-28T06:25:53.052Z,98780.72
2023-03-28T06:30:57.255Z,98788.28
2023-03-28T06:36:00.015Z,98783.72
2023-03-28T06:41:07.120Z,98770.63
2023-03-28T06:46:11.591Z,98779.97
2023-03-28T06:51:19.640Z,98766.81
2023-03-28T06:56:22.661Z,98787.09
2023-03-28T07:01:25.600Z,98772.88
2023-03-28T07:06:34.297Z,98797.53
2023-03-28T07:11:37.108Z,98794.34
2023-03-28T07:16:40.097Z,98804.66
2023-03-28T07:21:45.456Z,98807.72
2023-03-28T07:26:49.035Z,98806.94
2023-03-28T07:31:52.026Z,98802.78
2023-03-28T07:36:54.680Z,98798.28
2023-03-28T07:42:16.561Z,98802.03
2023-03-28T07:47:20.126Z,98787.34
2023-03-28T07:52:22.918Z,98797.47
2023-03-28T07:57:26.033Z,98807.72
2023-03-28T08:02:35.374Z,98800.00
2023-03-28T08:07:38.076Z,98809.84
2023-03-28T08:12:41.625Z,98804.50
2023-03-28T08:17:45.024Z,98813.31
2023-03-28T08:22:49.133Z,98812.97
2023-03-28T08:28:27.176Z,98818.03
2023-03-28T08:33:29.977Z,98817.13
2023-03-28T08:38:33.862Z,98799.19
2023-03-28T08:43:52.931Z,98799.34
2023-03-28T08:48:57.976Z,98788.81
2023-03-28T08:54:37.079Z,98793.72
2023-03-28T08:59:43.407Z,98797.81
2023-03-28T09:04:48.793Z,98792.53
2023-03-28T09:10:24.869Z,98787.81
2023-03-28T09:16:03.190Z,98787.47
2023-03-28T09:21:16.971Z,98790.44
2023-03-28T09:26:34.234Z,98798.31
2023-03-28T09:31:48.148Z,98784.72
2023-03-28T09:36:56.458Z,98793.41
2023-03-28T09:42:08.035Z,98791.72
2023-03-28T09:47:22.879Z,98804.22
2023-03-28T09:52:35.725Z,98801.81
2023-03-28T09:58:00.368Z,98792.50
2023-03-28T10:03:04.824Z,98802.50
2023-03-28T10:08:25.107Z,98802.84
2023-03-28T10:13:52.240Z,98806.16
2023-03-28T10:18:55.521Z,98797.69
2023-03-28T10:24:17.073Z,98804.22
2023-03-28T10:29:28.434Z,98800.75
2023-03-28T10:34:37.098Z,98789.72
2023-03-28T10:40:07.972Z,98799.31
2023-03-28T10:45:41.690Z,98784.53
2023-03-28T10:50:56.903Z,98798.34
2023-03-28T10:56:26.722Z,98794.56
2023-03-28T11:01:53.810Z,98784.28
2023-03-28T11:07:18.782Z,98785.59
2023-03-28T11:12:57.818Z,98800.19
2023-03-28T11:18:20.289Z,98792.28
2023-03-28T11:23:38.929Z,98779.03
2023-03-28T11:29:41.916Z,98786.78
2023-03-28T11:34:59.679Z,98783.69
2023-03-28T11:40:28.284Z,98774.84
2023-03-28T11:45:52.655Z,98784.88
2023-03-28T11:51:13.484Z,98771.13
2023-03-28T11:56:51.836Z,98769.78
2023-03-28T12:02:27.636Z,98762.22
2023-03-28T12:07:46.136Z,98764.16
2023-03-28T12:13:31.857Z,98753.56
2023-03-28T12:18:51.580Z,98754.81
2023-03-28T12:24:40.335Z,98758.38
2023-03-28T12:29:59.499Z,98755.28
2023-03-28T12:35:18.532Z,98720.66
2023-03-28T12:41:00.903Z,98746.78
2023-03-28T12:46:08.426Z,98732.97
2023-03-28T12:51:20.648Z,98748.38
2023-03-28T12:56:23.372Z,98743.31
2023-03-28T13:01:44.885Z,98722.38
2023-03-28T13:07:12.540Z,98733.13
2023-03-28T13:12:30.880Z,98721.19
2023-03-28T13:17:37.564Z,98718.91
2023-03-28T13:22:57.728Z,98715.16
2023-03-28T13:28:23.051Z,98709.38
2023-03-28T13:33:32.645Z,98714.56
2023-03-28T13:39:07.657Z,98714.50
2023-03-28T13:44:19.176Z,98718.41
2023-03-28T13:49:37.407Z,98710.13
2023-03-28T13:54:40.493Z,98678.84
2023-03-28T13:59:58.745Z,98706.81
2023-03-28T14:05:34.181Z,98692.13
2023-03-28T14:10:39.764Z,98694.16
2023-03-28T14:15:44.708Z,98686.66
2023-03-28T14:20:47.847Z,98682.53
2023-03-28T14:25:51.497Z,98678.22
2023-03-28T14:30:54.197Z,98683.75
2023-03-28T14:36:03.192Z,98655.78
2023-03-28T14:41:12.297Z,98689.13
2023-03-28T14:46:15.089Z,98676.41
2023-03-28T14:51:17.787Z,98675.88
2023-03-28T14:56:28.343Z,98689.88
2023-03-28T15:01:33.857Z,98685.75
2023-03-28T15:06:38.807Z,98691.75
2023-03-28T15:11:43.809Z,98683.50
2023-03-28T15:16:47.409Z,98682.13
2023-03-28T15:21:55.295Z,98696.97
2023-03-28T15:27:02.169Z,98686.81
2023-03-28T15:32:16.563Z,98663.09
2023-03-28T15:37:21.964Z,98685.38
2023-03-28T15:42:34.257Z,98683.00
2023-03-28T15:47:37.570Z,98661.88
2023-03-28T15:52:43.516Z,98692.88
2023-03-28T15:57:47.918Z,98675.88
2023-03-28T16:02:50.622Z,98688.09
2023-03-28T16:14:53.057Z,98693.56
2023-03-28T16:20:30.948Z,98685.94
2023-03-28T16:25:42.024Z,98703.13
2023-03-28T16:30:46.077Z,98694.72
2023-03-28T16:35:48.912Z,98705.91
2023-03-28T16:40:51.687Z,98712.81
2023-03-28T16:45:54.418Z,98715.53
2023-03-28T16:50:59.314Z,98715.53
2023-03-28T16:56:02.364Z,98731.88
2023-03-28T17:01:10.638Z,98726.78
2023-03-28T17:06:14.251Z,98717.44
2023-03-28T17:11:17.075Z,98721.72
2023-03-28T17:16:20.120Z,98725.19
2023-03-28T17:21:22.752Z,98724.41
2023-03-28T17:26:37.272Z,98716.69
2023-03-28T17:31:51.280Z,98727.94
2023-03-28T17:36:54.006Z,98721.97
2023-03-28T17:41:56.911Z,98718.56
2023-03-28T17:47:00.806Z,98719.41
2023-03-28T17:52:04.467Z,98712.53
2023-03-28T17:57:08.470Z,98733.06
2023-03-28T18:02:11.664Z,98737.38
2023-03-28T18:07:16.086Z,98716.03
2023-03-28T18:12:20.082Z,98728.78
2023-03-28T18:17:23.698Z,98739.09
2023-03-28T18:22:27.073Z,98739.94
2023-03-28T18:27:29.735Z,98721.16
2023-03-28T18:32:33.004Z,98735.59
2023-03-28T18:37:35.814Z,98725.34
2023-03-28T18:42:38.562Z,98737.28
2023-03-28T18:47:41.469Z,98726.22
2023-03-28T18:52:44.304Z,98723.63
2023-03-28T18:57:46.964Z,98728.78
2023-03-28T19:02:50.678Z,98731.44
2023-03-28T19:07:53.400Z,98733.25
2023-03-28T19:12:56.261Z,98726.50
2023-03-28T19:18:02.273Z,98725.75
2023-03-28T19:23:05.744Z,98736.91
2023-03-28T19:28:08.498Z,98721.59
2023-03-28T19:33:11.314Z,98729.34
2023-03-28T19:38:13.906Z,98732.88
2023-03-28T19:43:21.072Z,98727.00
2023-03-28T19:48:24.294Z,98723.66
2023-03-28T19:53:27.482Z,98728.78
2023-03-28T19:58:31.223Z,98721.97
2023-03-28T20:03:33.806Z,98725.38
2023-03-28T20:08:36.514Z,98728.81
2023-03-28T20:13:39.820Z,98705.78
2023-03-28T20:18:42.851Z,98733.88
2023-03-28T20:23:45.597Z,98712.47
2023-03-28T20:28:51.365Z,98727.00
2023-03-28T20:33:55.003Z,98725.16
2023-03-28T20:38:57.563Z,98715.81
2023-03-28T20:44:03.571Z,98709.00
2023-03-28T20:49:06.477Z,98716.69
2023-03-28T20:54:09.262Z,98709.88
2023-03-28T20:59:12.676Z,98701.34
2023-03-28T21:04:15.360Z,98698.78
2023-03-28T21:09:18.365Z,98691.91
2023-03-28T21:14:21.084Z,98689.28
2023-03-28T21:19:23.680Z,98673.91
2023-03-28T21:24:26.238Z,98689.25
2023-03-28T21:29:29.142Z,98675.53
2023-03-28T21:34:34.396Z,98680.78
2023-03-28T21:39:37.002Z,98681.69
2023-03-28T21:44:39.623Z,98672.34
2023-03-28T21:49:46.143Z,98673.19
2023-03-28T21:54:48.882Z,98674.06
2023-03-28T21:59:51.546Z,98663.75
2023-03-28T22:04:54.093Z,98628.78
2023-03-28T22:10:01.209Z,98656.13
2023-03-28T22:15:04.787Z,98639.97
2023-03-28T22:20:09.454Z,98628.19
2023-03-28T22:25:13.089Z,98650.41
2023-03-28T22:30:15.741Z,98641.03
2023-03-28T22:35:18.398Z,98642.81
2023-03-28T22:40:21.309Z,98639.44
2023-03-28T22:45:27.399Z,98630.88
2023-03-28T22:50:30.372Z,98620.66
2023-03-28T22:55:33.184Z,98625.78
2023-03-28T23:00:36.359Z,98621.50
2023-03-28T23:05:39.118Z,98614.69
2023-03-28T23:10:41.714Z,98608.69
2023-03-28T23:15:44.916Z,98603.69
2023-03-28T23:20:51.096Z,98616.47
2023-03-28T23:25:53.697Z,98609.63
2023-03-28T23:30:56.297Z,98605.34
2023-03-28T23:35:59.071Z,98593.31
2023-03-28T23:41:01.816Z,98605.13
2023-03-28T23:46:04.941Z,98599.91
2023-03-28T23:51:07.635Z,98596.44
2023-03-28T23:56:10.291Z,98550.38
